createdAt,value
2022-08-30T00:01:33.113Z,100566.06
2022-08-30T00:04:01.362Z,100565.50
2022-08-30T00:06:30.986Z,100562.19
2022-08-30T00:08:59.753Z,100561.72
2022-08-30T00:11:29.024Z,100560.19
2022-08-30T00:13:58.036Z,100558.19
2022-08-30T00:16:27.324Z,100556.88
2022-08-30T00:18:55.907Z,100564.91
2022-08-30T00:21:23.646Z,100561.22
2022-08-30T00:23:51.187Z,100559.06
2022-08-30T00:26:18.761Z,100568.34
2022-08-30T00:28:46.308Z,100566.22
2022-08-30T00:31:15.569Z,100574.75
2022-08-30T00:33:44.839Z,100574.28
2022-08-30T00:36:12.472Z,100566.47
2022-08-30T00:38:40.030Z,100567.94
2022-08-30T00:41:07.903Z,100566.75
2022-08-30T00:43:36.847Z,100565.91
2022-08-30T00:46:07.689Z,100557.25
2022-08-30T00:48:37.676Z,100559.19
2022-08-30T00:51:12.753Z,100574.53
2022-08-30T00:53:44.105Z,100565.00
2022-08-30T00:56:12.260Z,100562.84
2022-08-30T00:58:43.981Z,100562.53
2022-08-30T01:01:11.951Z,100561.00
2022-08-30T01:03:40.763Z,100563.00
2022-08-30T01:06:09.942Z,100558.34
2022-08-30T01:08:38.589Z,100561.47
2022-08-30T01:11:06.525Z,100560.63
2022-08-30T01:13:35.173Z,100562.81
2022-08-30T01:16:03.689Z,100558.97
2022-08-30T01:18:32.252Z,100569.66
2022-08-30T01:21:06.801Z,100562.75
2022-08-30T01:23:38.418Z,100571.03
2022-08-30T01:26:07.926Z,100562.13
2022-08-30T01:28:36.201Z,100558.44
2022-08-30T01:31:04.525Z,100561.25
2022-08-30T01:33:32.407Z,100561.31
2022-08-30T01:36:02.421Z,100555.41
2022-08-30T01:38:32.112Z,100553.84
2022-08-30T01:41:02.244Z,100559.69
2022-08-30T01:43:29.885Z,100550.38
2022-08-30T01:45:57.520Z,100558.72
2022-08-30T01:48:30.183Z,100559.16
2022-08-30T01:50:58.818Z,100567.91
2022-08-30T01:53:26.494Z,100565.06
2022-08-30T01:55:54.097Z,100563.88
2022-08-30T01:58:23.470Z,100561.44
2022-08-30T02:00:51.647Z,100559.25
2022-08-30T02:03:19.911Z,100557.13
2022-08-30T02:05:48.284Z,100556.81
2022-08-30T02:08:16.256Z,100561.88
2022-08-30T02:10:44.557Z,100569.19
2022-08-30T02:13:12.195Z,100560.56
2022-08-30T02:15:41.559Z,100573.94
2022-08-30T02:18:10.613Z,100572.16
2022-08-30T02:20:39.373Z,100566.63
2022-08-30T02:23:07.075Z,100568.47
2022-08-30T02:25:34.761Z,100568.47
2022-08-30T02:28:02.296Z,100568.09
2022-08-30T02:30:29.874Z,100563.84
2022-08-30T02:32:59.005Z,100567.53
2022-08-30T02:35:26.681Z,100570.84
2022-08-30T02:37:54.466Z,100572.31
2022-08-30T02:40:22.254Z,100568.94
2022-08-30T02:42:49.930Z,100576.03
2022-08-30T02:45:17.597Z,100562.72
2022-08-30T02:47:47.286Z,100570.69
2022-08-30T02:50:16.324Z,100572.50
2022-08-30T02:52:48.153Z,100568.28
2022-08-30T02:55:16.486Z,100565.19
2022-08-30T02:57:44.653Z,100575.59
2022-08-30T03:00:15.241Z,100571.66
2022-08-30T03:02:43.162Z,100566.66
2022-08-30T03:05:12.914Z,100570.03
2022-08-30T03:07:42.264Z,100566.09
2022-08-30T03:10:11.248Z,100562.66
2022-08-30T03:12:42.395Z,100562.38
2022-08-30T03:15:13.495Z,100562.66
2022-08-30T03:17:41.240Z,100560.38
2022-08-30T03:20:10.557Z,100559.56
2022-08-30T03:22:38.117Z,100561.72
2022-08-30T03:25:08.309Z,100556.16
2022-08-30T03:27:35.855Z,100556.53
2022-08-30T03:30:04.010Z,100558.84
2022-08-30T03:32:31.565Z,100554.84
2022-08-30T03:34:59.522Z,100548.22
2022-08-30T03:37:27.639Z,100548.75
2022-08-30T03:39:55.345Z,100556.13
2022-08-30T03:42:24.773Z,100554.34
2022-08-30T03:44:52.421Z,100549.25
2022-08-30T03:47:20.818Z,100552.41
2022-08-30T03:49:48.412Z,100550.63
2022-08-30T03:52:15.982Z,100565.63
2022-08-30T03:54:43.850Z,100559.78
2022-08-30T03:57:17.630Z,100561.81
2022-08-30T03:59:49.275Z,100566.88
2022-08-30T04:02:16.901Z,100562.59
2022-08-30T04:04:44.445Z,100562.41
2022-08-30T04:07:12.001Z,100561.69
2022-08-30T04:09:39.619Z,100566.75
2022-08-30T04:12:07.421Z,100563.25
2022-08-30T04:14:34.948Z,100571.25
2022-08-30T04:17:03.938Z,100565.06
2022-08-30T04:19:31.506Z,100568.22
2022-08-30T04:21:59.207Z,100565.41
2022-08-30T04:24:26.914Z,100572.34
2022-08-30T04:26:54.481Z,100562.38
2022-08-30T04:29:22.125Z,100564.22
2022-08-30T04:31:49.702Z,100567.88
2022-08-30T04:34:18.897Z,100574.00
2022-08-30T04:36:48.233Z,100573.22
2022-08-30T04:39:16.121Z,100572.03
2022-08-30T04:41:43.725Z,100571.88
2022-08-30T04:44:15.829Z,100577.63
2022-08-30T04:46:47.464Z,100573.88
2022-08-30T04:49:15.161Z,100570.97
2022-08-30T04:51:44.338Z,100575.59
2022-08-30T04:54:12.163Z,100572.38
2022-08-30T04:56:40.122Z,100572.69
2022-08-30T04:59:07.765Z,100578.41
2022-08-30T05:01:44.616Z,100575.72
2022-08-30T05:04:13.544Z,100579.41
2022-08-30T05:06:41.189Z,100583.38
2022-08-30T05:09:10.177Z,100591.50
2022-08-30T05:11:38.747Z,100588.53
2022-08-30T05:14:07.076Z,100588.84
2022-08-30T05:16:34.689Z,100591.97
2022-08-30T05:19:02.773Z,100595.84
2022-08-30T05:21:30.569Z,100588.31
2022-08-30T05:24:00.463Z,100591.06
2022-08-30T05:26:31.238Z,100592.63
2022-08-30T05:28:59.226Z,100599.16
2022-08-30T05:31:28.754Z,100601.59
2022-08-30T05:33:56.825Z,100606.16
2022-08-30T05:36:26.700Z,100605.69
2022-08-30T05:38:54.843Z,100596.09
2022-08-30T05:41:23.098Z,100601.84
2022-08-30T05:43:56.071Z,100607.94
2022-08-30T05:46:24.065Z,100604.84
2022-08-30T05:48:52.697Z,100603.72
2022-08-30T05:51:22.155Z,100612.75
2022-08-30T05:53:50.381Z,100615.25
2022-08-30T05:56:20.113Z,100621.50
2022-08-30T05:58:48.169Z,100624.59
2022-08-30T06:01:24.669Z,100623.22
2022-08-30T06:03:52.721Z,100625.13
2022-08-30T06:06:20.385Z,100627.53
2022-08-30T06:08:48.825Z,100632.72
2022-08-30T06:11:18.430Z,100627.34
2022-08-30T06:13:46.741Z,100627.06
2022-08-30T06:16:15.497Z,100616.13
2022-08-30T06:18:44.847Z,100620.38
2022-08-30T06:21:17.549Z,100624.75
2022-08-30T06:23:45.471Z,100623.22
2022-08-30T06:26:13.135Z,100632.09
2022-08-30T06:28:40.827Z,100628.22
2022-08-30T06:31:09.253Z,100632.69
2022-08-30T06:33:37.446Z,100628.81
2022-08-30T06:36:07.253Z,100634.06
2022-08-30T06:38:35.472Z,100623.31
2022-08-30T06:41:06.669Z,100624.72
2022-08-30T06:43:34.427Z,100633.16
2022-08-30T06:46:03.317Z,100629.47
2022-08-30T06:48:30.909Z,100638.41
2022-08-30T06:50:59.141Z,100633.00
2022-08-30T06:53:29.571Z,100632.97
2022-08-30T06:56:00.019Z,100630.69
2022-08-30T06:58:28.180Z,100632.81
2022-08-30T07:00:55.869Z,100626.94
2022-08-30T07:03:23.812Z,100630.63
2022-08-30T07:05:51.499Z,100632.34
2022-08-30T07:08:19.133Z,100625.84
2022-08-30T07:10:48.005Z,100624.63
2022-08-30T07:13:15.701Z,100635.88
2022-08-30T07:15:44.712Z,100632.75
2022-08-30T07:18:31.416Z,100638.31
2022-08-30T07:20:59.610Z,100648.44
2022-08-30T07:23:27.138Z,100642.69
2022-08-30T07:25:56.039Z,100646.03
2022-08-30T07:28:23.655Z,100649.81
2022-08-30T07:30:51.609Z,100648.66
2022-08-30T07:33:19.426Z,100647.66
2022-08-30T07:35:47.120Z,100653.09
2022-08-30T07:38:14.764Z,100650.91
2022-08-30T07:40:42.891Z,100655.66
2022-08-30T07:43:11.826Z,100660.66
2022-08-30T07:45:39.603Z,100658.78
2022-08-30T07:48:07.457Z,100656.09
2022-08-30T07:50:35.039Z,100655.25
2022-08-30T07:53:03.411Z,100669.13
2022-08-30T07:55:32.325Z,100667.25
2022-08-30T07:57:59.945Z,100661.88
2022-08-30T08:00:28.933Z,100660.03
2022-08-30T08:02:56.553Z,100664.59
2022-08-30T08:05:24.908Z,100656.09
2022-08-30T08:07:52.608Z,100662.31
2022-08-30T08:10:20.220Z,100658.16
2022-08-30T08:12:47.869Z,100664.38
2022-08-30T08:15:15.924Z,100662.94
2022-08-30T08:17:44.855Z,100662.09
2022-08-30T08:20:12.583Z,100664.31
2022-08-30T08:22:40.381Z,100668.00
2022-08-30T08:25:08.634Z,100670.34
2022-08-30T08:27:36.214Z,100661.41
2022-08-30T08:30:04.318Z,100656.56
2022-08-30T08:32:31.849Z,100663.69
2022-08-30T08:35:00.890Z,100663.16
2022-08-30T08:37:28.692Z,100660.41
2022-08-30T08:39:56.426Z,100667.53
2022-08-30T08:42:27.869Z,100664.22
2022-08-30T08:44:59.075Z,100663.28
2022-08-30T08:47:32.019Z,100666.66
2022-08-30T08:50:04.413Z,100665.47
2022-08-30T08:53:06.914Z,100670.00
2022-08-30T08:55:35.522Z,100662.66
2022-08-30T08:58:03.305Z,100658.69
2022-08-30T09:00:33.073Z,100667.94
2022-08-30T09:03:02.970Z,100666.53
2022-08-30T09:05:36.255Z,100652.13
2022-08-30T09:08:09.749Z,100658.16
2022-08-30T09:10:50.423Z,100664.19
2022-08-30T09:13:19.138Z,100655.25
2022-08-30T09:15:53.701Z,100656.13
2022-08-30T09:18:41.751Z,100656.84
2022-08-30T09:21:11.847Z,100655.53
2022-08-30T09:23:48.798Z,100654.56
2022-08-30T09:26:16.597Z,100655.50
2022-08-30T09:28:46.701Z,100652.16
2022-08-30T09:31:21.033Z,100648.22
2022-08-30T09:33:55.517Z,100641.13
2022-08-30T09:36:27.611Z,100645.69
2022-08-30T09:39:01.695Z,100637.59
2022-08-30T09:41:38.357Z,100645.22
2022-08-30T09:44:09.083Z,100646.41
2022-08-30T09:46:45.334Z,100640.41
2022-08-30T09:49:30.801Z,100641.47
2022-08-30T09:52:07.949Z,100630.38
2022-08-30T09:54:39.649Z,100629.25
2022-08-30T09:57:12.975Z,100634.19
2022-08-30T09:59:45.911Z,100630.50
2022-08-30T10:02:28.891Z,100632.19
2022-08-30T10:05:04.103Z,100630.94
2022-08-30T10:07:36.366Z,100625.38
2022-08-30T10:10:07.582Z,100627.03
2022-08-30T10:12:42.966Z,100619.47
2022-08-30T10:15:14.977Z,100623.31
2022-08-30T10:17:49.072Z,100617.84
2022-08-30T10:20:21.858Z,100615.56
2022-08-30T10:22:53.609Z,100605.66
2022-08-30T10:25:29.610Z,100609.53
2022-08-30T10:28:03.153Z,100607.38
2022-08-30T10:30:32.173Z,100613.38
2022-08-30T10:33:03.069Z,100608.84
2022-08-30T10:35:38.594Z,100607.13
2022-08-30T10:38:11.607Z,100604.09
2022-08-30T10:40:58.744Z,100607.41
2022-08-30T10:43:32.510Z,100608.06
2022-08-30T10:46:02.917Z,100604.22
2022-08-30T10:48:33.523Z,100608.53
2022-08-30T10:51:07.021Z,100592.66
2022-08-30T10:53:42.117Z,100603.06
2022-08-30T10:56:13.190Z,100599.44
2022-08-30T10:58:42.274Z,100602.28
2022-08-30T11:01:26.704Z,100602.31
2022-08-30T11:04:29.657Z,100591.50
2022-08-30T11:07:05.878Z,100594.50
2022-08-30T11:10:03.296Z,100593.78
2022-08-30T11:12:34.630Z,100599.97
2022-08-30T11:15:14.603Z,100598.72
2022-08-30T11:17:47.051Z,100597.38
2022-08-30T11:20:25.407Z,100581.56
2022-08-30T11:23:21.228Z,100590.75
2022-08-30T11:25:55.195Z,100581.69
2022-08-30T11:29:16.424Z,100583.19
2022-08-30T11:31:44.634Z,100575.84
2022-08-30T11:34:52.827Z,100577.50
2022-08-30T11:37:35.867Z,100577.84
2022-08-30T11:40:17.287Z,100578.19
2022-08-30T11:42:49.486Z,100575.38
2022-08-30T11:45:52.210Z,100568.97
2022-08-30T11:48:53.428Z,100569.31
2022-08-30T11:52:08.226Z,100566.44
2022-08-30T11:54:52.776Z,100566.81
2022-08-30T11:57:25.335Z,100563.72
2022-08-30T12:00:05.448Z,100564.53
2022-08-30T12:02:48.487Z,100557.53
2022-08-30T12:05:51.692Z,100555.47
2022-08-30T12:08:44.737Z,100558.03
2022-08-30T12:11:46.024Z,100548.44
2022-08-30T12:14:57.464Z,100551.34
2022-08-30T12:17:48.518Z,100547.72
2022-08-30T12:20:23.534Z,100546.03
2022-08-30T12:22:52.428Z,100546.56
2022-08-30T12:25:28.958Z,100549.16
2022-08-30T12:28:12.359Z,100543.34
2022-08-30T12:30:40.843Z,100534.03
2022-08-30T12:33:14.101Z,100534.81
2022-08-30T12:35:43.777Z,100529.19
2022-08-30T12:38:18.160Z,100536.56
2022-08-30T12:40:54.837Z,100532.84
2022-08-30T12:43:38.802Z,100526.16
2022-08-30T12:46:10.858Z,100522.59
2022-08-30T12:48:42.453Z,100530.78
2022-08-30T12:51:26.827Z,100525.88
2022-08-30T12:53:55.766Z,100530.13
2022-08-30T12:56:35.077Z,100519.16
2022-08-30T12:59:11.086Z,100516.53
2022-08-30T13:01:38.870Z,100520.66
2022-08-30T13:04:20.378Z,100517.97
2022-08-30T13:06:51.288Z,100522.84
2022-08-30T13:09:24.779Z,100518.16
2022-08-30T13:11:52.506Z,100513.41
2022-08-30T13:14:28.377Z,100511.09
2022-08-30T13:17:06.501Z,100513.63
2022-08-30T13:19:37.729Z,100512.59
2022-08-30T13:22:07.304Z,100522.09
2022-08-30T13:24:35.287Z,100512.56
2022-08-30T13:27:06.507Z,100502.75
2022-08-30T13:29:34.158Z,100508.88
2022-08-30T13:32:02.017Z,100500.97
2022-08-30T13:34:32.994Z,100501.53
2022-08-30T13:37:02.301Z,100508.13
2022-08-30T13:39:30.493Z,100502.63
2022-08-30T13:42:31.799Z,100507.19
2022-08-30T13:44:47.866Z,100504.94
2022-08-30T13:47:34.766Z,100514.06
2022-08-30T13:50:03.045Z,100499.66
2022-08-30T13:52:32.120Z,100510.31
2022-08-30T13:55:00.199Z,100497.97
2022-08-30T14:00:19.678Z,100495.22
2022-08-30T14:02:54.192Z,100500.16
2022-08-30T14:11:02.001Z,100498.25
2022-08-30T14:13:30.502Z,100498.56
2022-08-30T14:18:46.509Z,100490.16
2022-08-30T14:21:14.163Z,100491.91
2022-08-30T14:23:43.469Z,100484.03
2022-08-30T14:26:14.972Z,100488.44
2022-08-30T14:28:44.934Z,100480.41
2022-08-30T14:31:12.899Z,100489.00
2022-08-30T14:33:41.114Z,100486.19
2022-08-30T14:36:13.062Z,100493.63
2022-08-30T14:38:44.889Z,100483.59
2022-08-30T14:41:12.758Z,100490.69
2022-08-30T14:43:41.443Z,100493.88
2022-08-30T14:46:10.305Z,100494.50
2022-08-30T14:48:38.781Z,100488.97
2022-08-30T14:51:16.613Z,100490.34
2022-08-30T14:53:46.199Z,100485.34
2022-08-30T14:56:15.959Z,100480.59
2022-08-30T14:58:43.873Z,100480.47
2022-08-30T15:01:13.246Z,100487.59
2022-08-30T15:03:42.206Z,100480.47
2022-08-30T15:06:10.328Z,100472.94
2022-08-30T15:08:39.395Z,100474.44
2022-08-30T15:11:10.741Z,100470.81
2022-08-30T15:13:42.529Z,100476.16
2022-08-30T15:16:11.665Z,100471.38
2022-08-30T15:18:39.569Z,100472.00
2022-08-30T15:21:09.624Z,100476.97
2022-08-30T15:23:40.810Z,100477.09
2022-08-30T15:26:10.029Z,100467.28
2022-08-30T15:28:37.956Z,100465.09
2022-08-30T15:31:08.973Z,100476.00
2022-08-30T15:33:37.392Z,100461.94
2022-08-30T15:36:06.296Z,100459.16
2022-08-30T15:38:34.622Z,100467.00
2022-08-30T15:41:04.438Z,100461.06
2022-08-30T15:43:33.938Z,100464.56
2022-08-30T15:46:15.896Z,100455.44
2022-08-30T15:48:45.731Z,100451.34
2022-08-30T15:51:14.681Z,100441.59
2022-08-30T15:53:42.184Z,100444.97
2022-08-30T15:56:10.641Z,100446.06
2022-08-30T15:58:40.418Z,100435.94
2022-08-30T16:01:09.267Z,100438.41
2022-08-30T16:03:40.250Z,100434.97
2022-08-30T16:06:11.856Z,100434.69
2022-08-30T16:08:39.577Z,100431.13
2022-08-30T16:11:07.502Z,100425.66
2022-08-30T16:13:35.222Z,100426.72
2022-08-30T16:16:06.192Z,100431.75
2022-08-30T16:18:34.678Z,100433.97
2022-08-30T16:21:03.825Z,100433.09
2022-08-30T16:23:33.403Z,100430.88
2022-08-30T16:26:03.370Z,100420.34
2022-08-30T16:28:32.239Z,100427.22
2022-08-30T16:30:59.981Z,100417.03
2022-08-30T16:33:33.381Z,100415.16
2022-08-30T16:36:01.081Z,100415.44
2022-08-30T16:38:29.018Z,100413.53
2022-08-30T16:40:56.909Z,100407.09
2022-08-30T16:43:25.302Z,100408.09
2022-08-30T16:45:53.780Z,100409.50
2022-08-30T16:48:21.498Z,100408.75
2022-08-30T16:50:50.417Z,100412.91
2022-08-30T16:53:18.218Z,100401.47
2022-08-30T16:55:45.926Z,100402.66
2022-08-30T16:58:28.832Z,100404.94
2022-08-30T17:00:56.505Z,100410.91
2022-08-30T17:03:24.189Z,100410.09
2022-08-30T17:05:53.297Z,100407.78
2022-08-30T17:08:24.812Z,100424.13
2022-08-30T17:10:52.442Z,100421.41
2022-08-30T17:13:20.373Z,100414.56
2022-08-30T17:15:50.545Z,100420.03
2022-08-30T17:18:19.289Z,100418.59
2022-08-30T17:20:47.029Z,100422.47
2022-08-30T17:23:16.244Z,100418.53
2022-08-30T17:25:44.062Z,100428.19
2022-08-30T17:28:11.932Z,100425.13
2022-08-30T17:30:39.446Z,100427.84
2022-08-30T17:33:08.397Z,100426.81
2022-08-30T17:35:36.143Z,100426.09
2022-08-30T17:38:03.997Z,100433.03
2022-08-30T17:40:32.929Z,100428.34
2022-08-30T17:43:02.694Z,100430.78
2022-08-30T17:45:30.369Z,100429.06
2022-08-30T17:48:02.576Z,100428.81
2022-08-30T17:50:33.272Z,100433.88
2022-08-30T17:53:01.148Z,100444.09
2022-08-30T17:55:30.852Z,100444.94
2022-08-30T17:58:00.479Z,100441.66
2022-08-30T18:00:28.201Z,100450.41
2022-08-30T18:02:57.611Z,100447.75
2022-08-30T18:05:25.558Z,100456.38
2022-08-30T18:07:53.216Z,100456.94
2022-08-30T18:10:30.445Z,100463.00
2022-08-30T18:13:03.357Z,100467.16
2022-08-30T18:15:30.883Z,100456.66
2022-08-30T18:17:58.433Z,100456.31
2022-08-30T18:20:26.470Z,100459.84
2022-08-30T18:22:54.513Z,100464.84
2022-08-30T18:25:22.410Z,100473.47
2022-08-30T18:27:58.767Z,100478.69
2022-08-30T18:30:33.985Z,100476.06
2022-08-30T18:33:02.598Z,100475.72
2022-08-30T18:35:30.776Z,100484.66
2022-08-30T18:37:58.561Z,100486.94
2022-08-30T18:40:26.311Z,100483.44
2022-08-30T18:42:54.122Z,100491.09
2022-08-30T18:45:23.773Z,100479.50
2022-08-30T18:47:52.677Z,100483.44
2022-08-30T18:50:20.588Z,100487.13
2022-08-30T18:52:48.477Z,100490.03
2022-08-30T18:55:16.190Z,100484.44
2022-08-30T18:57:44.569Z,100482.13
2022-08-30T19:00:14.808Z,100496.00
2022-08-30T19:02:43.501Z,100494.13
2022-08-30T19:05:13.239Z,100489.78
2022-08-30T19:07:40.861Z,100492.03
2022-08-30T19:10:08.925Z,100496.16
2022-08-30T19:12:40.086Z,100491.78
2022-08-30T19:15:10.905Z,100495.06
2022-08-30T19:17:40.646Z,100510.03
2022-08-30T19:20:14.196Z,100511.44
2022-08-30T19:23:05.828Z,100507.69
2022-08-30T19:25:29.987Z,100507.25
2022-08-30T19:27:57.705Z,100509.06
2022-08-30T19:30:29.752Z,100505.94
2022-08-30T19:32:57.748Z,100504.06
2022-08-30T19:35:26.869Z,100522.66
2022-08-30T19:37:57.994Z,100516.44
2022-08-30T19:40:25.951Z,100517.50
2022-08-30T19:42:53.689Z,100524.84
2022-08-30T19:45:22.648Z,100519.06
2022-08-30T19:47:51.886Z,100526.72
2022-08-30T19:50:21.075Z,100525.00
2022-08-30T19:52:54.078Z,100528.63
2022-08-30T19:55:23.761Z,100530.81
2022-08-30T19:57:55.975Z,100529.84
2022-08-30T20:00:23.927Z,100528.81
2022-08-30T20:02:52.026Z,100533.97
2022-08-30T20:05:21.403Z,100531.44
2022-08-30T20:07:51.092Z,100534.69
2022-08-30T20:10:20.450Z,100532.28
2022-08-30T20:12:49.848Z,100533.50
2022-08-30T20:15:18.770Z,100533.91
2022-08-30T20:20:36.950Z,100526.91
2022-08-30T20:23:06.562Z,100534.13
2022-08-30T20:25:36.777Z,100529.00
2022-08-30T20:28:04.917Z,100535.00
2022-08-30T20:30:33.216Z,100532.97
2022-08-30T20:33:06.975Z,100543.03
2022-08-30T20:35:38.910Z,100538.25
2022-08-30T20:38:07.913Z,100542.09
2022-08-30T20:40:37.134Z,100539.19
2022-08-30T20:43:05.678Z,100541.03
2022-08-30T20:45:34.269Z,100551.22
2022-08-30T20:48:06.257Z,100552.97
2022-08-30T20:50:33.813Z,100550.06
2022-08-30T20:53:01.508Z,100548.28
2022-08-30T20:55:30.605Z,100536.88
2022-08-30T20:57:58.213Z,100536.78
2022-08-30T21:00:26.568Z,100540.13
2022-08-30T21:02:54.374Z,100542.75
2022-08-30T21:05:22.053Z,100547.13
2022-08-30T21:07:49.625Z,100552.56
2022-08-30T21:10:22.571Z,100558.34
2022-08-30T21:12:52.418Z,100559.25
2022-08-30T21:15:36.878Z,100561.09
2022-08-30T21:18:05.869Z,100569.38
2022-08-30T21:20:33.739Z,100568.06
2022-08-30T21:23:01.266Z,100573.28
2022-08-30T21:25:29.009Z,100579.94
2022-08-30T21:27:57.905Z,100578.34
2022-08-30T21:30:25.548Z,100582.16
2022-08-30T21:32:53.049Z,100586.38
2022-08-30T21:35:38.341Z,100586.50
2022-08-30T21:38:08.737Z,100578.56
2022-08-30T21:40:36.499Z,100580.47
2022-08-30T21:43:07.420Z,100580.31
2022-08-30T21:45:38.134Z,100581.53
2022-08-30T21:48:06.033Z,100573.97
2022-08-30T21:50:33.683Z,100586.84
2022-08-30T21:53:01.527Z,100575.25
2022-08-30T21:55:29.030Z,100581.28
2022-08-30T21:57:56.559Z,100577.16
2022-08-30T22:00:25.634Z,100580.09
2022-08-30T22:02:53.588Z,100590.41
2022-08-30T22:05:21.259Z,100588.56
2022-08-30T22:07:48.806Z,100590.03
2022-08-30T22:10:16.615Z,100599.78
2022-08-30T22:12:44.210Z,100587.38
2022-08-30T22:15:12.117Z,100593.34
2022-08-30T22:17:41.055Z,100597.81
2022-08-30T22:20:09.741Z,100593.91
2022-08-30T22:22:37.871Z,100606.69
2022-08-30T22:25:06.157Z,100601.16
2022-08-30T22:27:34.591Z,100603.59
2022-08-30T22:30:02.151Z,100611.47
2022-08-30T22:32:29.910Z,100613.13
2022-08-30T22:34:58.959Z,100609.78
2022-08-30T22:37:26.499Z,100608.38
2022-08-30T22:39:54.150Z,100607.13
2022-08-30T22:42:21.833Z,100606.13
2022-08-30T22:44:49.473Z,100609.44
2022-08-30T22:47:17.012Z,100615.81
2022-08-30T22:49:44.778Z,100611.50
2022-08-30T22:52:14.270Z,100616.44
2022-08-30T22:54:41.910Z,100619.34
2022-08-30T22:57:14.722Z,100624.94
2022-08-30T22:59:42.310Z,100619.91
2022-08-30T23:02:09.839Z,100629.59
2022-08-30T23:04:38.013Z,100619.66
2022-08-30T23:07:05.679Z,100622.53
2022-08-30T23:09:34.601Z,100629.84
2022-08-30T23:12:02.309Z,100638.84
2022-08-30T23:14:30.124Z,100622.63
2022-08-30T23:16:57.743Z,100625.22
2022-08-30T23:19:26.631Z,100624.13
2022-08-30T23:21:54.103Z,100621.78
2022-08-30T23:24:39.225Z,100626.50
2022-08-30T23:27:25.900Z,100621.47
2022-08-30T23:30:11.034Z,100623.00
2022-08-30T23:32:56.269Z,100630.72
2022-08-30T23:35:41.440Z,100627.09
2022-08-30T23:38:26.588Z,100633.09
2022-08-30T23:41:11.962Z,100618.59
2022-08-30T23:43:58.601Z,100628.78
2022-08-30T23:46:44.032Z,100622.59
2022-08-30T23:49:29.445Z,100629.53
2022-08-30T23:52:15.161Z,100628.69
2022-08-30T23:55:00.251Z,100629.84
2022-08-30T23:57:46.054Z,100636.00
